sensor_id;sensor_type;location;lat;lon;timestamp;temperature;humidity
15450;DHT22;7826;49.784;9.934;2023-07-29T00:00:04;17.70;1.00
15450;DHT22;7826;49.784;9.934;2023-07-29T00:02:32;17.70;1.00
15450;DHT22;7826;49.784;9.934;2023-07-29T00:04:59;17.60;1.00
15450;DHT22;7826;49.784;9.934;2023-07-29T00:07:25;17.60;1.00
15450;DHT22;7826;49.784;9.934;2023-07-29T00:09:52;17.60;1.00
15450;DHT22;7826;49.784;9.934;2023-07-29T00:12:19;17.60;1.00
15450;DHT22;7826;49.784;9.934;2023-07-29T00:14:45;17.50;1.00
15450;DHT22;7826;49.784;9.934;2023-07-29T00:17:12;17.50;1.00
15450;DHT22;7826;49.784;9.934;2023-07-29T00:19:38;17.50;1.00
15450;DHT22;7826;49.784;9.934;2023-07-29T00:22:05;17.50;1.00
15450;DHT22;7826;49.784;9.934;2023-07-29T00:24:32;17.50;1.00
15450;DHT22;7826;49.784;9.934;2023-07-29T00:26:58;17.50;1.00
15450;DHT22;7826;49.784;9.934;2023-07-29T00:29:25;17.50;1.00
15450;DHT22;7826;49.784;9.934;2023-07-29T00:31:51;17.40;1.00
15450;DHT22;7826;49.784;9.934;2023-07-29T00:34:18;17.40;1.00
15450;DHT22;7826;49.784;9.934;2023-07-29T00:36:46;17.30;1.00
15450;DHT22;7826;49.784;9.934;2023-07-29T00:39:12;17.40;1.00
15450;DHT22;7826;49.784;9.934;2023-07-29T00:41:39;17.40;1.00
15450;DHT22;7826;49.784;9.934;2023-07-29T00:44:06;17.40;1.00
15450;DHT22;7826;49.784;9.934;2023-07-29T00:46:34;17.30;1.00
15450;DHT22;7826;49.784;9.934;2023-07-29T00:49:02;17.30;1.00
15450;DHT22;7826;49.784;9.934;2023-07-29T00:51:29;17.30;1.00
15450;DHT22;7826;49.784;9.934;2023-07-29T00:53:55;17.30;1.00
15450;DHT22;7826;49.784;9.934;2023-07-29T00:56:22;17.30;1.00
15450;DHT22;7826;49.784;9.934;2023-07-29T00:58:48;17.20;1.00
15450;DHT22;7826;49.784;9.934;2023-07-29T01:01:15;17.10;1.00
15450;DHT22;7826;49.784;9.934;2023-07-29T01:03:41;17.20;1.00
15450;DHT22;7826;49.784;9.934;2023-07-29T01:09:04;17.20;1.00
15450;DHT22;7826;49.784;9.934;2023-07-29T01:11:41;17.20;1.00
15450;DHT22;7826;49.784;9.934;2023-07-29T01:14:21;17.20;1.00
15450;DHT22;7826;49.784;9.934;2023-07-29T01:16:56;17.10;1.00
15450;DHT22;7826;49.784;9.934;2023-07-29T01:20:09;17.10;1.00
15450;DHT22;7826;49.784;9.934;2023-07-29T01:22:37;17.00;1.00
15450;DHT22;7826;49.784;9.934;2023-07-29T01:25:04;17.00;1.00
15450;DHT22;7826;49.784;9.934;2023-07-29T01:27:31;17.00;1.00
15450;DHT22;7826;49.784;9.934;2023-07-29T01:29:58;17.00;1.00
15450;DHT22;7826;49.784;9.934;2023-07-29T01:32:29;17.00;1.00
15450;DHT22;7826;49.784;9.934;2023-07-29T01:37:26;17.00;1.00
15450;DHT22;7826;49.784;9.934;2023-07-29T01:39:58;16.90;1.00
15450;DHT22;7826;49.784;9.934;2023-07-29T01:42:26;16.90;1.00
15450;DHT22;7826;49.784;9.934;2023-07-29T01:44:53;16.90;1.00
15450;DHT22;7826;49.784;9.934;2023-07-29T01:47:20;16.90;1.00
15450;DHT22;7826;49.784;9.934;2023-07-29T01:49:48;16.90;1.00
15450;DHT22;7826;49.784;9.934;2023-07-29T01:52:15;16.90;1.00
15450;DHT22;7826;49.784;9.934;2023-07-29T01:54:41;16.80;1.00
15450;DHT22;7826;49.784;9.934;2023-07-29T01:57:08;16.80;1.00
15450;DHT22;7826;49.784;9.934;2023-07-29T01:59:34;16.80;1.00
15450;DHT22;7826;49.784;9.934;2023-07-29T02:02:01;16.80;1.00
15450;DHT22;7826;49.784;9.934;2023-07-29T02:04:28;16.80;1.00
15450;DHT22;7826;49.784;9.934;2023-07-29T02:06:54;16.80;1.00
15450;DHT22;7826;49.784;9.934;2023-07-29T02:09:21;16.80;1.00
15450;DHT22;7826;49.784;9.934;2023-07-29T02:11:47;16.80;1.00
15450;DHT22;7826;49.784;9.934;2023-07-29T02:14:14;16.80;1.00
15450;DHT22;7826;49.784;9.934;2023-07-29T02:16:40;16.80;1.00
15450;DHT22;7826;49.784;9.934;2023-07-29T02:19:08;16.80;1.00
15450;DHT22;7826;49.784;9.934;2023-07-29T02:21:34;16.80;1.00
15450;DHT22;7826;49.784;9.934;2023-07-29T02:24:01;16.80;1.00
15450;DHT22;7826;49.784;9.934;2023-07-29T02:26:27;16.80;1.00
15450;DHT22;7826;49.784;9.934;2023-07-29T02:28:54;16.70;1.00
15450;DHT22;7826;49.784;9.934;2023-07-29T02:31:24;16.70;1.00
15450;DHT22;7826;49.784;9.934;2023-07-29T02:33:51;16.70;1.00
15450;DHT22;7826;49.784;9.934;2023-07-29T02:36:18;16.70;1.00
15450;DHT22;7826;49.784;9.934;2023-07-29T02:38:44;16.70;1.00
15450;DHT22;7826;49.784;9.934;2023-07-29T02:41:11;16.70;1.00
15450;DHT22;7826;49.784;9.934;2023-07-29T02:43:39;16.70;1.00
15450;DHT22;7826;49.784;9.934;2023-07-29T02:46:07;16.80;1.00
15450;DHT22;7826;49.784;9.934;2023-07-29T02:48:33;16.70;1.00
15450;DHT22;7826;49.784;9.934;2023-07-29T02:51:00;16.70;1.00
15450;DHT22;7826;49.784;9.934;2023-07-29T02:53:26;16.70;1.00
15450;DHT22;7826;49.784;9.934;2023-07-29T02:55:53;16.80;1.00
15450;DHT22;7826;49.784;9.934;2023-07-29T02:58:20;16.80;1.00
15450;DHT22;7826;49.784;9.934;2023-07-29T03:00:46;16.70;1.00
15450;DHT22;7826;49.784;9.934;2023-07-29T03:03:14;16.80;1.00
15450;DHT22;7826;49.784;9.934;2023-07-29T03:05:41;16.90;1.00
15450;DHT22;7826;49.784;9.934;2023-07-29T03:08:07;17.00;1.00
15450;DHT22;7826;49.784;9.934;2023-07-29T03:10:35;17.00;1.00
15450;DHT22;7826;49.784;9.934;2023-07-29T03:13:02;17.10;1.00
15450;DHT22;7826;49.784;9.934;2023-07-29T03:15:29;17.10;1.00
15450;DHT22;7826;49.784;9.934;2023-07-29T03:17:55;17.10;1.00
15450;DHT22;7826;49.784;9.934;2023-07-29T03:20:22;17.00;1.00
15450;DHT22;7826;49.784;9.934;2023-07-29T03:22:48;17.00;1.00
15450;DHT22;7826;49.784;9.934;2023-07-29T03:25:15;17.00;1.00
15450;DHT22;7826;49.784;9.934;2023-07-29T03:27:41;17.00;1.00
15450;DHT22;7826;49.784;9.934;2023-07-29T03:30:08;17.00;1.00
15450;DHT22;7826;49.784;9.934;2023-07-29T03:32:35;17.00;1.00
15450;DHT22;7826;49.784;9.934;2023-07-29T03:35:01;17.00;1.00
15450;DHT22;7826;49.784;9.934;2023-07-29T03:37:28;17.00;1.00
15450;DHT22;7826;49.784;9.934;2023-07-29T03:39:54;17.00;1.00
15450;DHT22;7826;49.784;9.934;2023-07-29T03:42:21;17.00;1.00
15450;DHT22;7826;49.784;9.934;2023-07-29T03:44:47;17.10;1.00
15450;DHT22;7826;49.784;9.934;2023-07-29T03:47:14;17.10;1.00
15450;DHT22;7826;49.784;9.934;2023-07-29T03:49:40;17.10;1.00
15450;DHT22;7826;49.784;9.934;2023-07-29T03:52:07;17.10;1.00
15450;DHT22;7826;49.784;9.934;2023-07-29T03:54:33;17.20;1.00
15450;DHT22;7826;49.784;9.934;2023-07-29T03:57:00;17.20;1.00
15450;DHT22;7826;49.784;9.934;2023-07-29T03:59:26;17.20;1.00
15450;DHT22;7826;49.784;9.934;2023-07-29T04:01:53;17.10;1.00
15450;DHT22;7826;49.784;9.934;2023-07-29T04:04:20;17.10;1.00
15450;DHT22;7826;49.784;9.934;2023-07-29T04:06:46;17.10;1.00
15450;DHT22;7826;49.784;9.934;2023-07-29T04:09:13;17.10;1.00
15450;DHT22;7826;49.784;9.934;2023-07-29T04:11:40;17.10;1.00
15450;DHT22;7826;49.784;9.934;2023-07-29T04:14:06;17.10;1.00
15450;DHT22;7826;49.784;9.934;2023-07-29T04:16:33;17.10;1.00
15450;DHT22;7826;49.784;9.934;2023-07-29T04:18:59;17.20;1.00
15450;DHT22;7826;49.784;9.934;2023-07-29T04:21:26;17.20;1.00
15450;DHT22;7826;49.784;9.934;2023-07-29T04:23:53;17.20;1.00
15450;DHT22;7826;49.784;9.934;2023-07-29T04:26:19;17.30;1.00
15450;DHT22;7826;49.784;9.934;2023-07-29T04:28:46;17.30;1.00
15450;DHT22;7826;49.784;9.934;2023-07-29T04:31:12;17.30;1.00
15450;DHT22;7826;49.784;9.934;2023-07-29T04:33:39;17.40;1.00
15450;DHT22;7826;49.784;9.934;2023-07-29T04:36:05;17.40;1.00
15450;DHT22;7826;49.784;9.934;2023-07-29T04:38:32;17.40;1.00
15450;DHT22;7826;49.784;9.934;2023-07-29T04:40:59;17.50;1.00
15450;DHT22;7826;49.784;9.934;2023-07-29T04:43:30;17.50;1.00
15450;DHT22;7826;49.784;9.934;2023-07-29T04:45:57;17.60;1.00
15450;DHT22;7826;49.784;9.934;2023-07-29T04:48:23;17.60;1.00
15450;DHT22;7826;49.784;9.934;2023-07-29T04:50:50;17.70;1.00
15450;DHT22;7826;49.784;9.934;2023-07-29T04:53:16;17.80;1.00
15450;DHT22;7826;49.784;9.934;2023-07-29T04:55:43;18.00;1.00
15450;DHT22;7826;49.784;9.934;2023-07-29T04:58:10;18.00;1.00
15450;DHT22;7826;49.784;9.934;2023-07-29T05:00:36;18.10;1.00
15450;DHT22;7826;49.784;9.934;2023-07-29T05:03:03;18.20;1.00
15450;DHT22;7826;49.784;9.934;2023-07-29T05:05:29;18.10;1.00
15450;DHT22;7826;49.784;9.934;2023-07-29T05:07:56;18.20;1.00
15450;DHT22;7826;49.784;9.934;2023-07-29T05:10:22;18.30;1.00
15450;DHT22;7826;49.784;9.934;2023-07-29T05:12:49;18.40;1.00
15450;DHT22;7826;49.784;9.934;2023-07-29T05:15:15;18.40;1.00
15450;DHT22;7826;49.784;9.934;2023-07-29T05:17:42;18.50;1.00
15450;DHT22;7826;49.784;9.934;2023-07-29T05:20:09;18.60;1.00
15450;DHT22;7826;49.784;9.934;2023-07-29T05:22:50;18.60;1.00
15450;DHT22;7826;49.784;9.934;2023-07-29T05:25:31;18.70;1.00
15450;DHT22;7826;49.784;9.934;2023-07-29T05:28:11;18.70;1.00
15450;DHT22;7826;49.784;9.934;2023-07-29T05:30:52;18.70;1.00
15450;DHT22;7826;49.784;9.934;2023-07-29T05:33:33;18.80;1.00
15450;DHT22;7826;49.784;9.934;2023-07-29T05:36:00;18.80;1.00
15450;DHT22;7826;49.784;9.934;2023-07-29T05:38:26;18.80;1.00
15450;DHT22;7826;49.784;9.934;2023-07-29T05:40:52;18.80;1.00
15450;DHT22;7826;49.784;9.934;2023-07-29T05:43:19;18.90;1.00
15450;DHT22;7826;49.784;9.934;2023-07-29T05:45:46;18.90;1.00
15450;DHT22;7826;49.784;9.934;2023-07-29T05:48:12;19.00;1.00
15450;DHT22;7826;49.784;9.934;2023-07-29T05:50:39;19.10;1.00
15450;DHT22;7826;49.784;9.934;2023-07-29T05:53:05;19.10;1.00
15450;DHT22;7826;49.784;9.934;2023-07-29T05:55:32;19.20;1.00
15450;DHT22;7826;49.784;9.934;2023-07-29T05:57:58;19.20;1.00
15450;DHT22;7826;49.784;9.934;2023-07-29T06:00:25;19.20;1.00
15450;DHT22;7826;49.784;9.934;2023-07-29T06:02:51;19.40;1.00
15450;DHT22;7826;49.784;9.934;2023-07-29T06:05:18;19.40;1.00
15450;DHT22;7826;49.784;9.934;2023-07-29T06:07:44;19.50;1.00
15450;DHT22;7826;49.784;9.934;2023-07-29T06:10:16;19.60;1.00
15450;DHT22;7826;49.784;9.934;2023-07-29T06:12:46;19.60;1.00
15450;DHT22;7826;49.784;9.934;2023-07-29T06:15:12;19.70;1.00
15450;DHT22;7826;49.784;9.934;2023-07-29T06:17:40;19.70;1.00
15450;DHT22;7826;49.784;9.934;2023-07-29T06:20:07;19.80;1.00
15450;DHT22;7826;49.784;9.934;2023-07-29T06:22:33;19.90;1.00
15450;DHT22;7826;49.784;9.934;2023-07-29T06:25:00;19.90;1.00
15450;DHT22;7826;49.784;9.934;2023-07-29T06:27:26;20.10;1.00
15450;DHT22;7826;49.784;9.934;2023-07-29T06:29:53;20.10;1.00
15450;DHT22;7826;49.784;9.934;2023-07-29T06:32:19;20.20;1.00
15450;DHT22;7826;49.784;9.934;2023-07-29T06:34:46;20.40;1.00
15450;DHT22;7826;49.784;9.934;2023-07-29T06:37:12;20.50;1.00
15450;DHT22;7826;49.784;9.934;2023-07-29T06:39:39;20.40;1.00
15450;DHT22;7826;49.784;9.934;2023-07-29T06:42:05;20.60;1.00
15450;DHT22;7826;49.784;9.934;2023-07-29T06:44:32;20.70;1.00
15450;DHT22;7826;49.784;9.934;2023-07-29T06:46:59;20.70;1.00
15450;DHT22;7826;49.784;9.934;2023-07-29T06:49:25;20.70;1.00
15450;DHT22;7826;49.784;9.934;2023-07-29T06:51:52;20.80;1.00
15450;DHT22;7826;49.784;9.934;2023-07-29T06:54:18;21.00;1.00
15450;DHT22;7826;49.784;9.934;2023-07-29T06:56:45;21.20;1.00
15450;DHT22;7826;49.784;9.934;2023-07-29T06:59:11;21.60;1.00
15450;DHT22;7826;49.784;9.934;2023-07-29T07:01:38;21.60;1.00
15450;DHT22;7826;49.784;9.934;2023-07-29T07:04:04;21.90;1.00
15450;DHT22;7826;49.784;9.934;2023-07-29T07:06:31;22.00;1.00
15450;DHT22;7826;49.784;9.934;2023-07-29T07:08:57;22.20;1.00
15450;DHT22;7826;49.784;9.934;2023-07-29T07:11:24;22.30;1.00
15450;DHT22;7826;49.784;9.934;2023-07-29T07:13:50;22.30;1.00
15450;DHT22;7826;49.784;9.934;2023-07-29T07:16:17;22.70;1.00
15450;DHT22;7826;49.784;9.934;2023-07-29T07:18:43;22.90;1.00
15450;DHT22;7826;49.784;9.934;2023-07-29T07:21:10;23.10;1.00
15450;DHT22;7826;49.784;9.934;2023-07-29T07:23:36;23.10;1.00
15450;DHT22;7826;49.784;9.934;2023-07-29T07:26:03;23.10;1.00
15450;DHT22;7826;49.784;9.934;2023-07-29T07:28:29;22.90;1.00
15450;DHT22;7826;49.784;9.934;2023-07-29T07:30:56;23.00;1.00
15450;DHT22;7826;49.784;9.934;2023-07-29T07:33:23;23.20;1.00
15450;DHT22;7826;49.784;9.934;2023-07-29T07:35:50;23.40;1.00
15450;DHT22;7826;49.784;9.934;2023-07-29T07:38:16;23.80;1.00
15450;DHT22;7826;49.784;9.934;2023-07-29T07:40:55;24.20;99.90
15450;DHT22;7826;49.784;9.934;2023-07-29T07:43:22;24.60;99.90
15450;DHT22;7826;49.784;9.934;2023-07-29T07:45:49;24.70;1.00
15450;DHT22;7826;49.784;9.934;2023-07-29T07:48:16;24.80;99.90
15450;DHT22;7826;49.784;9.934;2023-07-29T07:50:46;24.70;99.90
15450;DHT22;7826;49.784;9.934;2023-07-29T07:53:12;25.00;99.90
15450;DHT22;7826;49.784;9.934;2023-07-29T07:55:39;24.80;99.90
15450;DHT22;7826;49.784;9.934;2023-07-29T07:58:05;24.60;99.90
15450;DHT22;7826;49.784;9.934;2023-07-29T08:00:32;24.90;99.90
15450;DHT22;7826;49.784;9.934;2023-07-29T08:02:58;25.00;99.90
15450;DHT22;7826;49.784;9.934;2023-07-29T08:05:25;25.50;99.90
15450;DHT22;7826;49.784;9.934;2023-07-29T08:07:50;25.30;2.90
15450;DHT22;7826;49.784;9.934;2023-07-29T08:10:16;24.80;1.00
15450;DHT22;7826;49.784;9.934;2023-07-29T08:12:43;25.10;99.90
15450;DHT22;7826;49.784;9.934;2023-07-29T08:15:09;25.10;99.90
15450;DHT22;7826;49.784;9.934;2023-07-29T08:17:36;24.80;1.00
15450;DHT22;7826;49.784;9.934;2023-07-29T08:20:02;24.70;99.90
15450;DHT22;7826;49.784;9.934;2023-07-29T08:22:29;24.50;1.00
15450;DHT22;7826;49.784;9.934;2023-07-29T08:24:55;24.40;99.90
15450;DHT22;7826;49.784;9.934;2023-07-29T08:27:22;24.20;99.90
15450;DHT22;7826;49.784;9.934;2023-07-29T08:29:49;24.00;99.90
15450;DHT22;7826;49.784;9.934;2023-07-29T08:32:15;24.00;1.00
15450;DHT22;7826;49.784;9.934;2023-07-29T08:34:42;24.00;99.90
15450;DHT22;7826;49.784;9.934;2023-07-29T08:37:08;23.80;99.90
15450;DHT22;7826;49.784;9.934;2023-07-29T08:39:35;23.90;99.90
15450;DHT22;7826;49.784;9.934;2023-07-29T08:42:03;24.00;99.90
15450;DHT22;7826;49.784;9.934;2023-07-29T08:44:42;23.80;99.90
15450;DHT22;7826;49.784;9.934;2023-07-29T08:47:09;23.90;99.90
15450;DHT22;7826;49.784;9.934;2023-07-29T08:49:37;23.80;99.90
15450;DHT22;7826;49.784;9.934;2023-07-29T08:52:05;23.80;99.90
15450;DHT22;7826;49.784;9.934;2023-07-29T08:54:32;23.80;99.90
15450;DHT22;7826;49.784;9.934;2023-07-29T08:56:59;23.80;99.90
15450;DHT22;7826;49.784;9.934;2023-07-29T08:59:26;24.00;99.90
15450;DHT22;7826;49.784;9.934;2023-07-29T09:01:53;23.90;99.90
15450;DHT22;7826;49.784;9.934;2023-07-29T09:04:21;23.80;99.90
15450;DHT22;7826;49.784;9.934;2023-07-29T09:06:48;24.00;99.90
15450;DHT22;7826;49.784;9.934;2023-07-29T09:09:16;24.10;99.90
15450;DHT22;7826;49.784;9.934;2023-07-29T09:11:43;24.20;99.90
15450;DHT22;7826;49.784;9.934;2023-07-29T09:14:10;24.40;1.00
15450;DHT22;7826;49.784;9.934;2023-07-29T09:16:37;24.50;39.20
15450;DHT22;7826;49.784;9.934;2023-07-29T09:19:04;24.60;1.00
15450;DHT22;7826;49.784;9.934;2023-07-29T09:21:32;24.70;99.90
15450;DHT22;7826;49.784;9.934;2023-07-29T09:24:02;24.90;1.00
15450;DHT22;7826;49.784;9.934;2023-07-29T09:26:29;25.00;99.90
15450;DHT22;7826;49.784;9.934;2023-07-29T09:28:59;24.90;1.00
15450;DHT22;7826;49.784;9.934;2023-07-29T09:31:27;24.90;20.80
15450;DHT22;7826;49.784;9.934;2023-07-29T09:34:02;24.60;48.20
15450;DHT22;7826;49.784;9.934;2023-07-29T09:36:31;24.60;1.00
15450;DHT22;7826;49.784;9.934;2023-07-29T09:38:58;24.50;99.90
15450;DHT22;7826;49.784;9.934;2023-07-29T09:41:26;24.70;99.90
15450;DHT22;7826;49.784;9.934;2023-07-29T09:44:00;24.50;1.00
15450;DHT22;7826;49.784;9.934;2023-07-29T09:46:35;24.20;92.00
15450;DHT22;7826;49.784;9.934;2023-07-29T09:49:03;24.20;31.40
15450;DHT22;7826;49.784;9.934;2023-07-29T09:51:32;24.20;99.90
15450;DHT22;7826;49.784;9.934;2023-07-29T09:54:03;24.40;1.00
15450;DHT22;7826;49.784;9.934;2023-07-29T09:56:30;24.50;25.00
15450;DHT22;7826;49.784;9.934;2023-07-29T09:58:57;24.30;99.90
15450;DHT22;7826;49.784;9.934;2023-07-29T10:01:24;24.40;99.90
15450;DHT22;7826;49.784;9.934;2023-07-29T10:03:51;24.50;1.00
15450;DHT22;7826;49.784;9.934;2023-07-29T10:06:18;24.60;1.00
15450;DHT22;7826;49.784;9.934;2023-07-29T10:08:45;24.60;1.00
15450;DHT22;7826;49.784;9.934;2023-07-29T10:11:12;24.50;1.00
15450;DHT22;7826;49.784;9.934;2023-07-29T10:13:39;24.50;1.00
15450;DHT22;7826;49.784;9.934;2023-07-29T10:16:05;24.40;99.90
15450;DHT22;7826;49.784;9.934;2023-07-29T10:18:33;24.30;1.00
15450;DHT22;7826;49.784;9.934;2023-07-29T10:21:01;24.10;1.00
15450;DHT22;7826;49.784;9.934;2023-07-29T10:23:37;24.10;4.50
15450;DHT22;7826;49.784;9.934;2023-07-29T10:26:06;23.90;99.90
15450;DHT22;7826;49.784;9.934;2023-07-29T10:28:39;23.70;99.90
15450;DHT22;7826;49.784;9.934;2023-07-29T10:31:06;23.60;99.90
15450;DHT22;7826;49.784;9.934;2023-07-29T10:33:34;23.20;1.00
15450;DHT22;7826;49.784;9.934;2023-07-29T10:36:01;22.80;1.00
15450;DHT22;7826;49.784;9.934;2023-07-29T10:38:28;22.30;1.00
15450;DHT22;7826;49.784;9.934;2023-07-29T10:40:56;22.20;1.00
15450;DHT22;7826;49.784;9.934;2023-07-29T10:43:26;22.10;1.00
15450;DHT22;7826;49.784;9.934;2023-07-29T10:45:55;22.20;1.00
15450;DHT22;7826;49.784;9.934;2023-07-29T10:53:52;22.00;1.00
15450;DHT22;7826;49.784;9.934;2023-07-29T10:56:33;21.90;1.00
15450;DHT22;7826;49.784;9.934;2023-07-29T11:01:40;21.80;1.00
15450;DHT22;7826;49.784;9.934;2023-07-29T11:12:49;21.60;1.00
15450;DHT22;7826;49.784;9.934;2023-07-29T11:17:49;21.50;1.00
15450;DHT22;7826;49.784;9.934;2023-07-29T11:20:18;21.60;1.00
15450;DHT22;7826;49.784;9.934;2023-07-29T11:22:45;21.50;1.00
15450;DHT22;7826;49.784;9.934;2023-07-29T11:25:15;21.40;1.00
15450;DHT22;7826;49.784;9.934;2023-07-29T11:27:42;21.40;1.00
15450;DHT22;7826;49.784;9.934;2023-07-29T11:30:11;21.50;1.00
15450;DHT22;7826;49.784;9.934;2023-07-29T11:32:39;21.50;1.00
15450;DHT22;7826;49.784;9.934;2023-07-29T11:35:08;21.40;1.00
15450;DHT22;7826;49.784;9.934;2023-07-29T11:37:36;21.40;1.00
15450;DHT22;7826;49.784;9.934;2023-07-29T11:40:04;21.40;1.00
15450;DHT22;7826;49.784;9.934;2023-07-29T11:42:32;21.40;1.00
15450;DHT22;7826;49.784;9.934;2023-07-29T11:45:02;21.40;1.00
15450;DHT22;7826;49.784;9.934;2023-07-29T11:47:31;21.40;1.00
15450;DHT22;7826;49.784;9.934;2023-07-29T11:49:58;21.40;1.00
15450;DHT22;7826;49.784;9.934;2023-07-29T11:52:29;21.30;1.00
15450;DHT22;7826;49.784;9.934;2023-07-29T11:54:57;21.30;1.00
15450;DHT22;7826;49.784;9.934;2023-07-29T11:57:24;21.20;1.00
15450;DHT22;7826;49.784;9.934;2023-07-29T11:59:51;21.30;1.00
15450;DHT22;7826;49.784;9.934;2023-07-29T12:02:20;21.20;1.00
15450;DHT22;7826;49.784;9.934;2023-07-29T12:04:47;21.30;1.00
15450;DHT22;7826;49.784;9.934;2023-07-29T12:07:16;21.40;1.00
15450;DHT22;7826;49.784;9.934;2023-07-29T12:09:43;21.50;1.00
15450;DHT22;7826;49.784;9.934;2023-07-29T12:12:10;21.60;1.00
15450;DHT22;7826;49.784;9.934;2023-07-29T12:14:36;21.70;1.00
15450;DHT22;7826;49.784;9.934;2023-07-29T12:17:05;21.60;1.00
15450;DHT22;7826;49.784;9.934;2023-07-29T12:19:36;21.60;1.00
15450;DHT22;7826;49.784;9.934;2023-07-29T12:22:04;21.70;1.00
15450;DHT22;7826;49.784;9.934;2023-07-29T12:24:32;22.00;1.00
15450;DHT22;7826;49.784;9.934;2023-07-29T12:26:59;22.20;1.00
15450;DHT22;7826;49.784;9.934;2023-07-29T12:29:26;22.00;1.00
15450;DHT22;7826;49.784;9.934;2023-07-29T12:32:02;22.10;1.00
15450;DHT22;7826;49.784;9.934;2023-07-29T12:34:30;22.00;1.00
15450;DHT22;7826;49.784;9.934;2023-07-29T12:36:58;21.90;1.00
15450;DHT22;7826;49.784;9.934;2023-07-29T12:39:30;22.20;1.00
15450;DHT22;7826;49.784;9.934;2023-07-29T12:41:58;22.30;1.00
15450;DHT22;7826;49.784;9.934;2023-07-29T12:44:26;22.20;1.00
15450;DHT22;7826;49.784;9.934;2023-07-29T12:46:53;22.40;1.00
15450;DHT22;7826;49.784;9.934;2023-07-29T12:49:20;22.70;1.00
15450;DHT22;7826;49.784;9.934;2023-07-29T12:51:46;23.00;1.00
15450;DHT22;7826;49.784;9.934;2023-07-29T12:54:12;23.30;1.00
15450;DHT22;7826;49.784;9.934;2023-07-29T12:56:39;23.60;1.00
15450;DHT22;7826;49.784;9.934;2023-07-29T12:59:06;23.60;1.00
15450;DHT22;7826;49.784;9.934;2023-07-29T13:01:32;24.00;1.00
15450;DHT22;7826;49.784;9.934;2023-07-29T13:03:59;24.10;1.00
15450;DHT22;7826;49.784;9.934;2023-07-29T13:06:25;24.40;1.00
15450;DHT22;7826;49.784;9.934;2023-07-29T13:08:52;24.50;1.00
15450;DHT22;7826;49.784;9.934;2023-07-29T13:11:18;24.60;1.00
15450;DHT22;7826;49.784;9.934;2023-07-29T13:13:45;24.60;1.00
15450;DHT22;7826;49.784;9.934;2023-07-29T13:16:12;25.00;99.90
15450;DHT22;7826;49.784;9.934;2023-07-29T13:18:39;25.20;99.90
15450;DHT22;7826;49.784;9.934;2023-07-29T13:21:07;25.10;76.70
15450;DHT22;7826;49.784;9.934;2023-07-29T13:23:33;24.80;99.90
15450;DHT22;7826;49.784;9.934;2023-07-29T13:26:00;24.70;1.00
15450;DHT22;7826;49.784;9.934;2023-07-29T13:28:27;24.30;99.90
15450;DHT22;7826;49.784;9.934;2023-07-29T13:30:53;24.20;99.90
15450;DHT22;7826;49.784;9.934;2023-07-29T13:33:20;24.00;99.90
15450;DHT22;7826;49.784;9.934;2023-07-29T13:35:47;24.00;99.90
15450;DHT22;7826;49.784;9.934;2023-07-29T13:38:13;24.20;99.90
15450;DHT22;7826;49.784;9.934;2023-07-29T13:40:40;24.20;99.90
15450;DHT22;7826;49.784;9.934;2023-07-29T13:43:06;24.40;99.90
15450;DHT22;7826;49.784;9.934;2023-07-29T13:45:34;24.10;99.90
15450;DHT22;7826;49.784;9.934;2023-07-29T13:48:01;24.20;99.90
15450;DHT22;7826;49.784;9.934;2023-07-29T13:50:27;24.30;99.90
15450;DHT22;7826;49.784;9.934;2023-07-29T13:52:53;24.30;99.90
15450;DHT22;7826;49.784;9.934;2023-07-29T13:55:20;24.40;99.90
15450;DHT22;7826;49.784;9.934;2023-07-29T13:57:47;24.30;1.00
15450;DHT22;7826;49.784;9.934;2023-07-29T14:00:14;24.30;24.80
15450;DHT22;7826;49.784;9.934;2023-07-29T14:02:41;24.20;99.90
15450;DHT22;7826;49.784;9.934;2023-07-29T14:05:08;24.30;99.90
15450;DHT22;7826;49.784;9.934;2023-07-29T14:07:35;24.50;99.90
15450;DHT22;7826;49.784;9.934;2023-07-29T14:10:02;24.50;99.90
15450;DHT22;7826;49.784;9.934;2023-07-29T14:12:28;24.70;1.00
15450;DHT22;7826;49.784;9.934;2023-07-29T14:14:55;24.90;99.90
15450;DHT22;7826;49.784;9.934;2023-07-29T14:17:21;25.10;16.10
15450;DHT22;7826;49.784;9.934;2023-07-29T14:19:48;25.10;1.00
15450;DHT22;7826;49.784;9.934;2023-07-29T14:22:14;24.90;1.00
15450;DHT22;7826;49.784;9.934;2023-07-29T14:24:41;24.60;1.00
15450;DHT22;7826;49.784;9.934;2023-07-29T14:27:07;24.50;99.90
15450;DHT22;7826;49.784;9.934;2023-07-29T14:29:33;24.80;99.90
15450;DHT22;7826;49.784;9.934;2023-07-29T14:32:00;25.10;93.60
15450;DHT22;7826;49.784;9.934;2023-07-29T14:34:26;25.20;1.00
15450;DHT22;7826;49.784;9.934;2023-07-29T14:36:53;25.30;99.90
15450;DHT22;7826;49.784;9.934;2023-07-29T14:39:19;25.50;99.90
15450;DHT22;7826;49.784;9.934;2023-07-29T14:41:46;25.70;1.00
15450;DHT22;7826;49.784;9.934;2023-07-29T14:44:12;25.50;1.00
15450;DHT22;7826;49.784;9.934;2023-07-29T14:46:39;25.30;1.50
15450;DHT22;7826;49.784;9.934;2023-07-29T14:49:05;25.20;1.00
15450;DHT22;7826;49.784;9.934;2023-07-29T14:51:32;25.30;89.70
15450;DHT22;7826;49.784;9.934;2023-07-29T14:53:58;25.50;1.00
15450;DHT22;7826;49.784;9.934;2023-07-29T14:56:25;25.30;99.90
15450;DHT22;7826;49.784;9.934;2023-07-29T14:58:51;25.10;99.90
15450;DHT22;7826;49.784;9.934;2023-07-29T15:01:18;25.00;99.90
15450;DHT22;7826;49.784;9.934;2023-07-29T15:03:44;24.40;1.00
15450;DHT22;7826;49.784;9.934;2023-07-29T15:06:11;24.00;29.50
15450;DHT22;7826;49.784;9.934;2023-07-29T15:08:37;23.00;99.90
15450;DHT22;7826;49.784;9.934;2023-07-29T15:11:04;21.90;99.90
15450;DHT22;7826;49.784;9.934;2023-07-29T15:13:30;20.80;1.00
15450;DHT22;7826;49.784;9.934;2023-07-29T15:15:57;20.30;1.00
15450;DHT22;7826;49.784;9.934;2023-07-29T15:18:23;19.80;1.00
15450;DHT22;7826;49.784;9.934;2023-07-29T15:20:50;19.60;1.00
15450;DHT22;7826;49.784;9.934;2023-07-29T15:23:17;19.50;1.00
15450;DHT22;7826;49.784;9.934;2023-07-29T15:25:44;19.50;1.00
15450;DHT22;7826;49.784;9.934;2023-07-29T15:28:10;19.60;1.00
15450;DHT22;7826;49.784;9.934;2023-07-29T15:30:37;19.80;1.00
15450;DHT22;7826;49.784;9.934;2023-07-29T15:33:03;20.00;1.00
15450;DHT22;7826;49.784;9.934;2023-07-29T15:35:39;20.20;1.00
15450;DHT22;7826;49.784;9.934;2023-07-29T15:38:06;20.30;1.00
15450;DHT22;7826;49.784;9.934;2023-07-29T15:40:33;20.50;1.00
15450;DHT22;7826;49.784;9.934;2023-07-29T15:42:59;20.60;1.00
15450;DHT22;7826;49.784;9.934;2023-07-29T15:45:26;20.70;1.00
15450;DHT22;7826;49.784;9.934;2023-07-29T15:47:52;20.80;1.00
15450;DHT22;7826;49.784;9.934;2023-07-29T15:50:19;20.80;1.00
15450;DHT22;7826;49.784;9.934;2023-07-29T15:52:45;20.70;1.00
15450;DHT22;7826;49.784;9.934;2023-07-29T15:55:13;20.60;1.00
15450;DHT22;7826;49.784;9.934;2023-07-29T15:57:39;20.60;1.00
15450;DHT22;7826;49.784;9.934;2023-07-29T16:00:06;20.70;1.00
15450;DHT22;7826;49.784;9.934;2023-07-29T16:02:33;20.70;1.00
15450;DHT22;7826;49.784;9.934;2023-07-29T16:04:59;20.60;1.00
15450;DHT22;7826;49.784;9.934;2023-07-29T16:07:26;20.70;1.00
15450;DHT22;7826;49.784;9.934;2023-07-29T16:09:52;20.80;1.00
15450;DHT22;7826;49.784;9.934;2023-07-29T16:12:19;20.90;1.00
15450;DHT22;7826;49.784;9.934;2023-07-29T16:14:45;20.90;1.00
15450;DHT22;7826;49.784;9.934;2023-07-29T16:17:12;21.00;1.00
15450;DHT22;7826;49.784;9.934;2023-07-29T16:19:56;21.00;1.00
15450;DHT22;7826;49.784;9.934;2023-07-29T16:22:23;21.10;1.00